createdAt,value
2018-09-12T00:02:27.192Z,17.50
2018-09-12T00:04:55.929Z,17.60
2018-09-12T00:07:25.597Z,17.50
2018-09-12T00:09:54.286Z,17.50
2018-09-12T00:12:23.012Z,17.40
2018-09-12T00:14:51.803Z,17.50
2018-09-12T00:17:20.538Z,17.40
2018-09-12T00:19:49.195Z,17.40
2018-09-12T00:22:17.968Z,17.40
2018-09-12T00:24:46.704Z,17.40
2018-09-12T00:27:15.420Z,17.40
2018-09-12T00:29:44.047Z,17.40
2018-09-12T00:32:12.705Z,17.40
2018-09-12T00:34:41.287Z,17.40
2018-09-12T00:37:09.918Z,17.40
2018-09-12T00:39:41.813Z,17.30
2018-09-12T00:42:10.416Z,17.30
2018-09-12T00:44:39.018Z,17.30
2018-09-12T00:47:07.652Z,17.40
2018-09-12T00:49:36.228Z,17.40
2018-09-12T00:52:04.855Z,17.30
2018-09-12T00:54:33.468Z,17.40
2018-09-12T00:57:02.128Z,17.40
2018-09-12T00:59:30.688Z,17.30
2018-09-12T01:02:15.744Z,17.40
2018-09-12T01:04:44.489Z,17.30
2018-09-12T01:07:13.188Z,17.30
2018-09-12T01:09:41.805Z,17.30
2018-09-12T01:12:10.586Z,17.40
2018-09-12T01:14:39.220Z,17.30
2018-09-12T01:17:07.886Z,17.30
2018-09-12T01:19:36.577Z,17.30
2018-09-12T01:22:05.227Z,17.30
2018-09-12T01:24:34.991Z,17.20
2018-09-12T01:27:03.683Z,17.30
2018-09-12T01:29:32.305Z,17.20
2018-09-12T01:32:01.044Z,17.20
2018-09-12T01:34:29.723Z,17.20
2018-09-12T01:36:58.379Z,17.10
2018-09-12T01:39:27.046Z,17.10
2018-09-12T01:41:55.732Z,17.20
2018-09-12T01:44:24.398Z,17.30
2018-09-12T01:46:54.081Z,17.30
2018-09-12T01:49:22.755Z,17.30
2018-09-12T01:51:51.491Z,17.20
2018-09-12T01:54:20.136Z,17.10
2018-09-12T01:56:48.825Z,17.00
2018-09-12T01:59:17.559Z,17.10
2018-09-12T02:01:46.559Z,17.20
2018-09-12T02:04:15.255Z,17.20
2018-09-12T02:06:43.916Z,17.10
2018-09-12T02:09:15.470Z,17.20
2018-09-12T02:11:44.139Z,17.20
2018-09-12T02:14:12.737Z,17.10
2018-09-12T02:16:41.480Z,17.10
2018-09-12T02:19:10.110Z,17.30
2018-09-12T02:21:38.782Z,17.40
2018-09-12T02:24:07.506Z,17.70
2018-09-12T02:26:36.259Z,17.80
2018-09-12T02:29:05.040Z,17.90
2018-09-12T02:31:36.915Z,18.00
2018-09-12T02:34:05.618Z,18.00
2018-09-12T02:36:34.312Z,17.80
2018-09-12T02:39:03.032Z,17.70
2018-09-12T02:41:31.696Z,17.70
2018-09-12T02:44:00.356Z,17.70
2018-09-12T02:46:28.986Z,17.70
2018-09-12T02:48:57.703Z,17.70
2018-09-12T02:51:26.405Z,17.60
2018-09-12T02:53:56.120Z,17.80
2018-09-12T02:56:24.854Z,17.90
2018-09-12T02:58:53.504Z,17.70
2018-09-12T03:01:22.192Z,17.70
2018-09-12T03:03:50.963Z,17.80
2018-09-12T03:06:19.686Z,17.90
2018-09-12T03:08:48.364Z,18.00
2018-09-12T03:11:17.087Z,18.00
2018-09-12T03:13:45.764Z,17.90
2018-09-12T03:16:20.900Z,18.00
2018-09-12T03:18:49.600Z,17.90
2018-09-12T03:21:18.387Z,17.90
2018-09-12T03:23:47.058Z,18.10
2018-09-12T03:26:15.794Z,18.10
2018-09-12T03:28:44.483Z,18.00
2018-09-12T03:31:13.116Z,18.10
2018-09-12T03:33:41.722Z,18.30
2018-09-12T03:36:10.452Z,18.30
2018-09-12T03:38:39.226Z,18.30
2018-09-12T03:41:07.890Z,18.10
2018-09-12T03:43:36.574Z,18.20
2018-09-12T03:46:05.239Z,18.30
2018-09-12T03:48:33.845Z,18.10
2018-09-12T03:51:02.446Z,18.20
2018-09-12T03:53:31.052Z,18.20
2018-09-12T03:55:59.730Z,18.20
2018-09-12T03:58:28.378Z,18.30
2018-09-12T04:00:57.268Z,18.20
2018-09-12T04:03:25.890Z,18.10
2018-09-12T04:05:54.630Z,18.10
2018-09-12T04:08:23.349Z,18.20
2018-09-12T04:10:52.006Z,18.00
2018-09-12T04:13:20.731Z,18.10
2018-09-12T04:15:49.980Z,18.20
2018-09-12T04:18:18.856Z,18.20
2018-09-12T04:20:47.501Z,18.20
2018-09-12T04:23:16.629Z,18.10
2018-09-12T04:25:45.278Z,18.20
2018-09-12T04:28:13.960Z,18.10
2018-09-12T04:30:42.574Z,18.10
2018-09-12T04:33:11.318Z,18.10
2018-09-12T04:35:39.940Z,18.00
2018-09-12T04:38:08.749Z,18.10
2018-09-12T04:40:37.510Z,18.10
2018-09-12T04:43:06.686Z,18.00
2018-09-12T04:45:35.537Z,17.90
2018-09-12T04:48:13.924Z,17.90
2018-09-12T04:50:42.959Z,17.90
2018-09-12T04:53:11.691Z,17.90
2018-09-12T04:55:40.451Z,18.10
2018-09-12T04:58:09.131Z,18.00
2018-09-12T05:00:37.825Z,18.00
2018-09-12T05:03:07.485Z,18.20
2018-09-12T05:05:36.445Z,18.30
2018-09-12T05:08:05.365Z,18.30
2018-09-12T05:10:34.011Z,18.30
2018-09-12T05:13:02.625Z,18.20
2018-09-12T05:15:31.299Z,18.10
2018-09-12T05:18:00.013Z,18.20
2018-09-12T05:20:28.713Z,18.10
2018-09-12T05:22:57.537Z,18.10
2018-09-12T05:25:26.212Z,18.10
2018-09-12T05:27:55.780Z,18.10
2018-09-12T05:30:24.562Z,18.00
2018-09-12T05:32:53.260Z,18.10
2018-09-12T05:35:21.976Z,18.10
2018-09-12T05:37:50.649Z,18.00
2018-09-12T05:40:19.387Z,18.20
2018-09-12T05:42:48.147Z,18.20
2018-09-12T05:45:16.940Z,18.10
2018-09-12T05:47:45.776Z,18.20
2018-09-12T05:50:14.762Z,18.30
2018-09-12T05:52:43.509Z,18.20
2018-09-12T05:55:12.367Z,18.30
2018-09-12T05:57:41.329Z,18.40
2018-09-12T06:00:10.199Z,18.30
2018-09-12T06:02:38.924Z,18.30
2018-09-12T06:05:07.620Z,18.40
2018-09-12T06:07:36.254Z,18.60
2018-09-12T06:10:05.144Z,18.70
2018-09-12T06:12:40.166Z,18.60
2018-09-12T06:15:08.956Z,18.40
2018-09-12T06:17:37.641Z,18.40
2018-09-12T06:20:06.784Z,18.40
2018-09-12T06:22:35.837Z,18.40
2018-09-12T06:25:04.646Z,18.30
2018-09-12T06:27:33.624Z,18.30
2018-09-12T06:30:02.455Z,18.20
2018-09-12T06:32:31.238Z,18.20
2018-09-12T06:35:02.008Z,18.20
2018-09-12T06:37:30.645Z,18.10
2018-09-12T06:39:59.506Z,18.00
2018-09-12T06:42:28.233Z,17.90
2018-09-12T06:44:56.857Z,17.70
2018-09-12T06:47:25.639Z,17.70
2018-09-12T06:49:54.321Z,17.40
2018-09-12T06:52:23.119Z,17.20
2018-09-12T06:54:52.116Z,16.90
2018-09-12T06:57:21.171Z,16.90
2018-09-12T06:59:49.797Z,16.80
2018-09-12T07:02:18.622Z,16.80
2018-09-12T07:04:47.396Z,16.70
2018-09-12T07:07:16.067Z,16.60
2018-09-12T07:09:45.001Z,16.60
2018-09-12T07:12:13.724Z,16.50
2018-09-12T07:14:42.427Z,16.50
2018-09-12T07:17:11.177Z,16.50
2018-09-12T07:19:40.387Z,16.50
2018-09-12T07:22:09.167Z,16.50
2018-09-12T07:24:37.801Z,16.40
2018-09-12T07:27:06.426Z,16.40
2018-09-12T07:29:35.348Z,16.40
2018-09-12T07:32:04.069Z,16.30
2018-09-12T07:34:32.851Z,16.30
2018-09-12T07:37:01.684Z,16.30
2018-09-12T07:39:30.461Z,16.30
2018-09-12T07:41:59.340Z,16.30
2018-09-12T07:44:28.081Z,16.30
2018-09-12T07:46:56.958Z,16.30
2018-09-12T07:49:25.755Z,16.30
2018-09-12T07:51:54.545Z,16.40
2018-09-12T07:54:23.730Z,16.30
2018-09-12T07:56:52.605Z,16.40
2018-09-12T07:59:21.315Z,16.40
2018-09-12T08:01:50.172Z,16.30
2018-09-12T08:04:21.289Z,16.30
2018-09-12T08:06:50.768Z,16.30
2018-09-12T08:09:19.705Z,16.20
2018-09-12T08:11:48.414Z,16.10
2018-09-12T08:14:17.141Z,16.20
2018-09-12T08:16:45.924Z,16.20
2018-09-12T08:19:14.598Z,16.10
2018-09-12T08:21:43.235Z,16.10
2018-09-12T08:24:11.979Z,16.20
2018-09-12T08:26:41.334Z,16.20
2018-09-12T08:29:10.245Z,16.20
2018-09-12T08:31:38.934Z,15.90
2018-09-12T08:34:07.619Z,16.00
2018-09-12T08:36:36.318Z,16.00
2018-09-12T08:39:06.587Z,15.90
2018-09-12T08:41:35.418Z,16.00
2018-09-12T08:44:04.056Z,16.20
2018-09-12T08:46:33.344Z,16.00
2018-09-12T08:49:02.017Z,16.10
2018-09-12T08:51:30.815Z,16.10
2018-09-12T08:53:59.507Z,16.10
2018-09-12T08:56:28.291Z,16.10
2018-09-12T08:58:57.186Z,16.00
2018-09-12T09:01:26.066Z,15.90
2018-09-12T09:03:54.900Z,15.80
2018-09-12T09:06:23.571Z,15.80
2018-09-12T09:08:52.279Z,15.80
2018-09-12T09:11:20.994Z,15.80
2018-09-12T09:13:49.667Z,15.90
2018-09-12T09:16:18.386Z,15.90
2018-09-12T09:18:47.079Z,15.80
2018-09-12T09:21:15.826Z,15.90
2018-09-12T09:23:44.572Z,15.80
2018-09-12T09:26:13.213Z,15.70
2018-09-12T09:28:41.976Z,15.60
2018-09-12T09:31:10.895Z,15.60
2018-09-12T09:33:39.507Z,15.50
2018-09-12T09:36:08.423Z,15.60
2018-09-12T09:38:37.099Z,15.90
2018-09-12T09:41:06.138Z,15.90
2018-09-12T09:43:34.815Z,16.00
2018-09-12T09:46:22.441Z,16.20
2018-09-12T09:52:02.059Z,16.10
2018-09-12T09:54:31.757Z,15.90
2018-09-12T10:29:14.027Z,16.00
2018-09-12T10:32:02.563Z,15.90
2018-09-12T10:34:48.901Z,15.90
2018-09-12T10:37:19.559Z,15.80
2018-09-12T10:40:00.423Z,15.80
2018-09-12T14:49:23.084Z,15.10
2018-09-12T14:51:54.015Z,14.90
2018-09-12T14:54:22.649Z,15.00
2018-09-12T14:56:51.329Z,15.00
2018-09-12T14:59:20.075Z,14.90
2018-09-12T15:01:49.910Z,15.00
2018-09-12T15:04:18.432Z,15.10
2018-09-12T15:06:46.984Z,15.10
2018-09-12T15:09:15.528Z,15.10
2018-09-12T15:11:44.055Z,15.10
2018-09-12T15:14:12.547Z,15.10
2018-09-12T15:16:42.806Z,15.10
2018-09-12T15:19:11.478Z,15.00
2018-09-12T15:21:40.334Z,15.10
2018-09-12T15:24:09.035Z,15.00
2018-09-12T15:26:37.550Z,15.10
2018-09-12T15:29:06.599Z,15.00
2018-09-12T15:31:35.127Z,15.00
2018-09-12T15:34:05.767Z,15.00
2018-09-12T15:36:34.258Z,14.90
2018-09-12T15:39:02.805Z,15.00
2018-09-12T15:41:31.678Z,14.80
2018-09-12T15:44:01.037Z,14.80
2018-09-12T15:46:30.360Z,14.80
2018-09-12T15:49:01.010Z,14.80
2018-09-12T15:51:29.548Z,14.90
2018-09-12T15:53:58.762Z,14.90
2018-09-12T15:56:27.494Z,15.00
2018-09-12T15:58:56.592Z,15.10
2018-09-12T16:01:26.062Z,15.10
2018-09-12T16:03:55.053Z,15.00
2018-09-12T16:06:24.018Z,15.10
2018-09-12T16:08:53.862Z,15.10
2018-09-12T16:11:22.585Z,15.10
2018-09-12T16:13:51.639Z,15.30
2018-09-12T16:16:20.224Z,15.00
2018-09-12T16:18:48.695Z,15.10
2018-09-12T16:21:17.636Z,15.10
2018-09-12T16:23:46.380Z,15.30
2018-09-12T16:26:14.867Z,15.20
2018-09-12T16:28:43.444Z,15.10
2018-09-12T16:31:11.938Z,15.10
2018-09-12T16:33:41.701Z,15.00
2018-09-12T16:36:10.274Z,15.00
2018-09-12T16:38:38.945Z,14.90
2018-09-12T16:41:07.658Z,15.10
2018-09-12T16:43:36.390Z,15.00
2018-09-12T16:46:05.737Z,15.10
2018-09-12T16:48:35.038Z,15.10
2018-09-12T16:51:04.234Z,15.30
2018-09-12T16:53:34.176Z,15.10
2018-09-12T16:56:04.068Z,14.90
2018-09-12T16:58:33.224Z,15.10
2018-09-12T17:01:01.851Z,15.10
2018-09-12T17:03:31.005Z,15.10
2018-09-12T17:05:59.560Z,15.00
2018-09-12T17:08:28.081Z,15.00
2018-09-12T17:10:57.401Z,15.00
2018-09-12T17:13:26.044Z,15.10
2018-09-12T17:15:55.292Z,15.10
2018-09-12T17:18:24.064Z,15.00
2018-09-12T17:20:52.584Z,15.00
2018-09-12T17:23:21.274Z,15.10
2018-09-12T17:25:49.922Z,15.00
2018-09-12T17:28:18.504Z,15.00
2018-09-12T17:30:47.033Z,15.00
2018-09-12T17:33:15.582Z,15.00
2018-09-12T17:35:44.130Z,15.00
2018-09-12T17:38:12.784Z,15.00
2018-09-12T17:40:41.291Z,15.00
2018-09-12T17:43:09.877Z,14.90
2018-09-12T17:45:38.416Z,15.20
2018-09-12T17:48:07.131Z,15.10
2018-09-12T17:50:39.078Z,15.00
2018-09-12T17:53:08.111Z,15.00
2018-09-12T17:55:37.619Z,15.00
2018-09-12T17:58:06.181Z,15.00
2018-09-12T18:00:34.823Z,15.00
2018-09-12T18:03:03.354Z,15.00
2018-09-12T18:05:31.908Z,15.00
2018-09-12T18:08:01.042Z,15.00
2018-09-12T18:10:30.695Z,15.00
2018-09-12T18:12:59.725Z,15.00
2018-09-12T18:15:29.063Z,14.90
2018-09-12T18:17:57.615Z,14.90
2018-09-12T18:20:26.871Z,14.90
2018-09-12T18:22:55.698Z,14.90
2018-09-12T18:25:24.211Z,14.90
2018-09-12T18:27:52.752Z,14.90
2018-09-12T18:30:21.466Z,14.90
2018-09-12T18:32:49.937Z,15.10
2018-09-12T18:35:18.505Z,15.10
2018-09-12T18:37:47.077Z,15.00
2018-09-12T18:40:15.556Z,14.90
2018-09-12T18:42:44.016Z,14.80
2018-09-12T18:45:12.589Z,14.70
2018-09-12T18:47:41.124Z,14.70
2018-09-12T18:50:09.382Z,14.90
2018-09-12T18:52:37.838Z,14.80
2018-09-12T18:55:06.448Z,14.70
2018-09-12T18:57:34.956Z,14.70
2018-09-12T19:00:03.594Z,14.40
2018-09-12T19:02:32.103Z,14.60
2018-09-12T19:05:00.672Z,14.50
2018-09-12T19:07:29.152Z,14.50
2018-09-12T19:09:57.946Z,14.50
2018-09-12T19:12:26.403Z,14.60
2018-09-12T19:14:54.884Z,14.50
2018-09-12T19:17:23.366Z,14.50
2018-09-12T19:19:51.938Z,14.60
2018-09-12T19:22:20.446Z,14.50
2018-09-12T19:24:48.940Z,14.40
2018-09-12T19:27:17.471Z,14.40
2018-09-12T19:29:46.415Z,14.60
2018-09-12T19:32:15.158Z,14.50
2018-09-12T19:34:44.565Z,14.50
2018-09-12T19:37:13.079Z,14.60
2018-09-12T19:39:41.590Z,14.70
2018-09-12T19:42:10.105Z,14.40
2018-09-12T19:44:38.617Z,14.50
2018-09-12T19:47:07.097Z,14.40
2018-09-12T19:49:35.629Z,14.20
2018-09-12T19:52:04.125Z,14.10
2018-09-12T19:54:32.611Z,14.10
2018-09-12T19:57:01.097Z,14.20
2018-09-12T19:59:29.549Z,14.20
2018-09-12T20:01:58.057Z,14.20
2018-09-12T20:04:26.553Z,14.20
2018-09-12T20:06:55.185Z,14.20
2018-09-12T20:09:23.688Z,14.20
2018-09-12T20:11:52.311Z,14.30
2018-09-12T20:14:21.084Z,14.40
2018-09-12T20:16:49.920Z,14.20
2018-09-12T20:19:18.619Z,14.20
2018-09-12T20:21:47.315Z,14.30
2018-09-12T20:24:16.013Z,14.50
2018-09-12T20:26:44.769Z,14.40
2018-09-12T20:29:13.456Z,14.40
2018-09-12T20:31:42.041Z,14.50
2018-09-12T20:34:10.593Z,14.40
2018-09-12T20:36:39.189Z,14.40
2018-09-12T20:39:09.643Z,14.30
2018-09-12T20:45:09.112Z,14.20
2018-09-12T20:47:37.582Z,14.20
2018-09-12T20:50:06.386Z,14.20
2018-09-12T20:52:34.879Z,14.20
2018-09-12T20:55:03.408Z,14.20
2018-09-12T20:57:32.008Z,14.20
2018-09-12T21:00:00.541Z,14.20
2018-09-12T21:02:29.042Z,14.20
2018-09-12T21:04:57.563Z,14.20
2018-09-12T21:07:26.078Z,14.30
2018-09-12T21:09:54.631Z,14.10
2018-09-12T21:12:23.118Z,14.10
2018-09-12T21:14:51.590Z,14.30
2018-09-12T21:17:20.044Z,14.30
2018-09-12T21:19:48.587Z,14.40
2018-09-12T21:22:17.180Z,14.30
2018-09-12T21:24:45.707Z,14.30
2018-09-12T21:27:14.227Z,14.20
2018-09-12T21:29:42.789Z,14.20
2018-09-12T21:32:11.261Z,14.10
2018-09-12T21:34:39.724Z,14.10
2018-09-12T21:37:08.246Z,14.70
2018-09-12T21:39:36.811Z,14.70
2018-09-12T21:42:05.465Z,14.60
2018-09-12T21:44:34.063Z,14.50
2018-09-12T21:47:02.636Z,14.30
2018-09-12T21:49:31.162Z,14.60
2018-09-12T21:51:59.902Z,14.60
2018-09-12T21:54:28.419Z,14.50
2018-09-12T21:56:56.926Z,14.50
2018-09-12T21:59:25.412Z,14.50
2018-09-12T22:01:53.910Z,14.40
2018-09-12T22:04:22.373Z,14.30
2018-09-12T22:06:51.060Z,14.20
2018-09-12T22:09:19.613Z,14.20
2018-09-12T22:11:48.083Z,14.30
2018-09-12T22:14:16.802Z,14.20
2018-09-12T22:16:45.247Z,14.20
2018-09-12T22:19:13.843Z,14.10
2018-09-12T22:21:42.392Z,14.20
2018-09-12T22:24:10.910Z,14.60
2018-09-12T22:26:39.535Z,14.20
2018-09-12T22:29:08.466Z,14.40
2018-09-12T22:31:36.997Z,14.40
2018-09-12T22:34:05.597Z,14.30
2018-09-12T22:36:34.321Z,14.30
2018-09-12T22:39:02.996Z,14.20
2018-09-12T22:41:31.678Z,14.50
2018-09-12T22:44:01.052Z,14.60
2018-09-12T22:46:29.602Z,14.60
2018-09-12T22:48:58.112Z,14.60
2018-09-12T22:51:26.730Z,14.50
2018-09-12T22:53:55.226Z,14.50
2018-09-12T22:56:23.740Z,14.50
2018-09-12T22:58:52.282Z,14.50
2018-09-12T23:01:20.803Z,14.50
2018-09-12T23:03:49.317Z,14.70
2018-09-12T23:06:17.779Z,14.50
2018-09-12T23:08:46.351Z,14.60
2018-09-12T23:11:14.825Z,14.50
2018-09-12T23:13:43.313Z,14.30
2018-09-12T23:16:11.766Z,14.20
2018-09-12T23:18:40.392Z,14.20
2018-09-12T23:21:08.831Z,14.20
2018-09-12T23:23:37.341Z,14.20
2018-09-12T23:26:05.853Z,14.20
2018-09-12T23:28:34.498Z,14.10
2018-09-12T23:31:03.172Z,14.10
2018-09-12T23:33:31.633Z,14.00
2018-09-12T23:36:31.007Z,14.00
2018-09-12T23:38:59.660Z,14.10
2018-09-12T23:41:28.112Z,14.00
2018-09-12T23:43:56.741Z,14.00
2018-09-12T23:46:25.203Z,14.00
2018-09-12T23:48:53.665Z,14.00
2018-09-12T23:51:22.165Z,14.00
2018-09-12T23:53:50.664Z,13.90
2018-09-12T23:56:19.495Z,14.10
2018-09-12T23:58:47.968Z,14.00
